Terminal Aerodrome Forecast
Issued by NWS

Home | Current Version | Previous Version | Text Only | Print | Product List | Glossary On
Versions: 1 2 3 4 5 6 7 8 9 10 11 12 13 14 15 16 17 18 19 20 21
925
FTUS43 KIND 290334 AAB
TAFBMG
TAF AMD
KBMG 290334Z 2904/2924 02005KT P6SM OVC035
     FM290600 03005KT P6SM OVC030
     FM290800 06005KT P6SM OVC015
     FM291400 08009KT P6SM OVC015
     FM291600 08008KT P6SM BKN030
     FM291700 09008KT P6SM BKN040
      AMD LTD TO CLD VIS AND WIND TIL 291300=

USA.gov is the U.S. government's official web portal to all federal, state and local government web resources and services.